Time;durP1;ratioP1;P1;durP2;ratioP2;P2;SDS_P1;SDS_P2;PMS_P1;PMS_P2;Temp;Humidity;BMP_temperature;BMP_pressure;BME280_temperature;BME280_humidity;BME280_pressure;Samples;Min_cycle;Max_cycle;Signal;HPM_P1;HPM_P2
2021/09/08 00:00:57;;;;;;;14.17;10.00;;;16.30;1.00;;;;;;4952628;28;21164;-76
2021/09/08 00:03:22;;;;;;;14.80;10.97;;;16.10;1.00;;;;;;4953462;28;20201;-76
2021/09/08 00:05:48;;;;;;;12.47;10.63;;;16.00;1.00;;;;;;4952885;28;21003;-76
2021/09/08 00:08:13;;;;;;;13.20;10.17;;;15.80;1.00;;;;;;4952164;28;20559;-76
2021/09/08 00:10:39;;;;;;;14.80;10.47;;;15.70;1.00;;;;;;4948382;28;21009;-76
2021/09/08 00:13:05;;;;;;;17.07;10.63;;;15.70;1.00;;;;;;4948763;28;20221;-76
2021/09/08 00:15:30;;;;;;;16.27;9.90;;;15.60;1.00;;;;;;4949528;28;21291;-77
2021/09/08 00:17:56;;;;;;;14.70;11.00;;;15.60;1.00;;;;;;4953388;28;20181;-77
2021/09/08 00:20:22;;;;;;;16.23;10.70;;;15.60;1.00;;;;;;4953915;28;20319;-76
2021/09/08 00:22:47;;;;;;;19.67;12.73;;;15.50;1.00;;;;;;4949227;28;20189;-77
2021/09/08 00:25:13;;;;;;;17.20;11.10;;;15.50;1.00;;;;;;4951179;28;20194;-76
2021/09/08 00:27:39;;;;;;;14.30;10.53;;;15.40;1.00;;;;;;4952672;28;20210;-76
2021/09/08 00:30:05;;;;;;;13.47;11.23;;;15.40;1.00;;;;;;4949883;28;20253;-76
2021/09/08 00:32:31;;;;;;;14.10;11.00;;;15.40;1.00;;;;;;4951041;28;20200;-76
2021/09/08 00:34:59;;;;;;;17.73;11.47;;;15.40;1.00;;;;;;4952391;28;20962;-76
2021/09/08 00:37:26;;;;;;;15.37;11.10;;;15.30;1.00;;;;;;4951381;28;20499;-76
2021/09/08 00:39:52;;;;;;;14.27;9.83;;;15.30;1.00;;;;;;4950535;28;20456;-76
2021/09/08 00:42:18;;;;;;;14.17;10.40;;;15.30;1.00;;;;;;4948513;28;20452;-76
2021/09/08 00:44:45;;;;;;;15.97;10.60;;;15.40;1.00;;;;;;4952673;28;20194;-76
2021/09/08 00:47:16;;;;;;;20.13;10.70;;;15.40;1.00;;;;;;4948861;28;20453;-76
2021/09/08 00:49:43;;;;;;;16.60;11.77;;;15.40;1.00;;;;;;4954678;28;20581;-76
2021/09/08 00:52:12;;;;;;;14.63;11.00;;;15.40;1.00;;;;;;4959307;28;20461;-76
2021/09/08 00:54:39;;;;;;;16.00;11.60;;;15.40;1.00;;;;;;4959500;28;20442;-76
2021/09/08 00:57:08;;;;;;;15.50;11.40;;;15.30;1.00;;;;;;4955146;28;20441;-76
2021/09/08 00:59:35;;;;;;;18.37;10.50;;;15.30;1.00;;;;;;4957776;28;20512;-76
2021/09/08 01:02:04;;;;;;;14.60;11.00;;;15.30;1.00;;;;;;4948231;28;20477;-76
2021/09/08 01:04:34;;;;;;;16.27;11.23;;;15.20;1.00;;;;;;4949002;28;20529;-77
2021/09/08 01:07:04;;;;;;;14.80;11.00;;;15.10;1.00;;;;;;4945489;28;20806;-76
2021/09/08 01:09:32;;;;;;;16.43;12.33;;;15.10;1.00;;;;;;4950378;28;21129;-76
2021/09/08 01:11:58;;;;;;;15.50;11.43;;;15.10;1.00;;;;;;4950061;28;20496;-76
2021/09/08 01:14:25;;;;;;;13.30;10.63;;;15.10;1.00;;;;;;4949657;28;20465;-76
2021/09/08 01:16:53;;;;;;;18.87;11.17;;;15.00;1.00;;;;;;4949858;28;20857;-76
2021/09/08 01:19:19;;;;;;;19.60;12.57;;;15.00;1.00;;;;;;4949660;28;20466;-76
2021/09/08 01:21:45;;;;;;;16.37;11.93;;;14.90;1.00;;;;;;4947934;28;20544;-76
2021/09/08 01:24:11;;;;;;;15.07;10.90;;;14.90;1.00;;;;;;4948740;28;20198;-76
2021/09/08 01:26:39;;;;;;;15.07;10.40;;;14.90;1.00;;;;;;4953659;28;20461;-75
2021/09/08 01:29:05;;;;;;;14.33;10.80;;;14.90;1.00;;;;;;4950212;28;20482;-76
2021/09/08 01:31:31;;;;;;;16.20;11.83;;;14.80;1.00;;;;;;4948322;28;20449;-76
2021/09/08 01:33:58;;;;;;;17.93;11.80;;;14.80;1.00;;;;;;4951690;28;20448;-76
2021/09/08 01:36:23;;;;;;;18.07;11.97;;;14.80;1.00;;;;;;4950512;28;20194;-76
2021/09/08 01:38:49;;;;;;;18.20;11.67;;;14.80;1.00;;;;;;4955587;28;20958;-76
2021/09/08 01:41:15;;;;;;;20.53;12.93;;;14.80;1.00;;;;;;4949296;28;20560;-76
2021/09/08 01:43:41;;;;;;;21.80;12.80;;;14.80;1.00;;;;;;4950928;28;20210;-76
2021/09/08 01:46:06;;;;;;;17.30;12.53;;;14.80;1.00;;;;;;4952228;28;20193;-76
2021/09/08 01:48:32;;;;;;;16.27;12.97;;;14.80;1.00;;;;;;4955860;28;20277;-76
2021/09/08 01:50:57;;;;;;;16.80;11.37;;;14.80;1.00;;;;;;4952067;28;20293;-76
2021/09/08 01:53:23;;;;;;;23.27;12.30;;;14.70;1.00;;;;;;4953504;28;20216;-76
2021/09/08 01:55:50;;;;;;;18.30;13.40;;;14.70;1.00;;;;;;4949114;28;20196;-76
2021/09/08 01:58:16;;;;;;;17.37;12.10;;;14.70;1.00;;;;;;4948674;28;20207;-76
2021/09/08 02:00:43;;;;;;;16.23;13.00;;;14.70;1.00;;;;;;4949375;28;20450;-76
2021/09/08 02:03:09;;;;;;;16.43;12.13;;;14.70;1.00;;;;;;4948569;28;20468;-76
2021/09/08 02:05:35;;;;;;;18.60;12.93;;;14.70;1.00;;;;;;4951359;28;20454;-77
2021/09/08 02:08:01;;;;;;;17.10;12.20;;;14.70;1.00;;;;;;4951772;28;20198;-76
2021/09/08 02:10:27;;;;;;;18.50;13.33;;;14.70;1.00;;;;;;4949122;28;20596;-76
2021/09/08 02:12:54;;;;;;;21.10;13.23;;;14.70;1.00;;;;;;4951884;28;20453;-76
2021/09/08 02:15:19;;;;;;;14.10;12.60;;;14.70;1.00;;;;;;4947909;28;20442;-76
2021/09/08 02:17:45;;;;;;;15.90;12.70;;;14.60;1.00;;;;;;4957980;28;20791;-76
2021/09/08 02:20:11;;;;;;;17.43;13.17;;;14.70;1.00;;;;;;4951444;28;20263;-76
2021/09/08 02:22:37;;;;;;;23.63;13.60;;;14.70;1.00;;;;;;4949331;28;20198;-75
2021/09/08 02:25:04;;;;;;;16.80;11.60;;;14.70;1.00;;;;;;4952263;28;20547;-76
2021/09/08 02:27:29;;;;;;;17.70;12.87;;;14.70;1.00;;;;;;4949153;28;20460;-76
2021/09/08 02:29:55;;;;;;;19.70;12.77;;;14.70;1.00;;;;;;4951807;28;20544;-76
2021/09/08 02:32:21;;;;;;;18.57;13.30;;;14.70;1.00;;;;;;4949092;28;20218;-76
2021/09/08 02:34:46;;;;;;;20.10;14.67;;;14.60;1.00;;;;;;4952743;28;20956;-76
2021/09/08 02:37:12;;;;;;;18.80;13.03;;;14.70;1.00;;;;;;4950492;28;20194;-76
2021/09/08 02:39:38;;;;;;;19.40;12.93;;;14.70;1.00;;;;;;4952601;28;20182;-76
2021/09/08 02:42:04;;;;;;;20.23;13.97;;;14.70;1.00;;;;;;4945425;28;20458;-76
2021/09/08 02:44:29;;;;;;;20.03;13.33;;;14.70;1.00;;;;;;4949965;28;20201;-76
2021/09/08 02:46:55;;;;;;;19.50;13.50;;;14.70;1.00;;;;;;4955095;28;20495;-76
2021/09/08 02:49:21;;;;;;;18.97;13.30;;;14.70;1.00;;;;;;4947953;28;20221;-76
2021/09/08 02:51:46;;;;;;;16.13;12.30;;;14.70;1.00;;;;;;4945434;28;20233;-76
2021/09/08 02:54:12;;;;;;;17.97;12.60;;;14.60;1.00;;;;;;4955264;28;20202;-76
2021/09/08 02:56:37;;;;;;;20.83;12.63;;;14.60;1.00;;;;;;4950137;28;20186;-76
2021/09/08 02:59:03;;;;;;;21.70;12.93;;;14.60;1.00;;;;;;4951244;28;21054;-76
2021/09/08 03:01:29;;;;;;;21.63;15.00;;;14.50;1.00;;;;;;4949294;28;21051;-76
2021/09/08 03:03:54;;;;;;;23.83;14.87;;;14.40;1.00;;;;;;4954104;28;20182;-76
2021/09/08 03:06:20;;;;;;;26.10;13.30;;;14.30;1.00;;;;;;4950360;28;21344;-76
2021/09/08 03:08:45;;;;;;;19.27;14.00;;;14.30;27.90;;;;;;4953175;28;20268;-76
2021/09/08 03:11:11;;;;;;;18.90;14.60;;;14.20;19.60;;;;;;4934194;28;20202;-76
2021/09/08 03:13:37;;;;;;;22.30;14.67;;;14.20;47.70;;;;;;4950079;28;20225;-76
2021/09/08 03:16:02;;;;;;;19.10;13.83;;;14.10;85.50;;;;;;4948104;28;20191;-76
2021/09/08 03:18:28;;;;;;;25.40;15.80;;;14.10;99.90;;;;;;4955367;28;20237;-77
2021/09/08 03:20:54;;;;;;;18.60;15.00;;;14.10;99.90;;;;;;4951076;28;20488;-76
2021/09/08 03:23:19;;;;;;;22.60;14.50;;;14.20;99.90;;;;;;4949012;28;20187;-76
2021/09/08 03:25:45;;;;;;;26.00;14.60;;;14.20;90.90;;;;;;4950299;28;20194;-77
2021/09/08 03:28:10;;;;;;;17.50;13.00;;;14.20;69.90;;;;;;4954576;28;20600;-76
2021/09/08 03:30:36;;;;;;;19.93;13.80;;;14.20;24.30;;;;;;4948210;28;20214;-75
2021/09/08 03:33:03;;;;;;;19.00;14.30;;;14.30;4.80;;;;;;4945595;28;20300;-76
2021/09/08 03:35:29;;;;;;;19.17;13.97;;;14.20;1.00;;;;;;4949006;28;20182;-76
2021/09/08 03:37:54;;;;;;;27.23;13.07;;;14.30;1.00;;;;;;4953560;28;20454;-77
2021/09/08 03:40:20;;;;;;;21.73;13.83;;;14.30;1.00;;;;;;4946669;28;20735;-76
2021/09/08 03:42:46;;;;;;;19.30;13.80;;;14.30;1.00;;;;;;4945866;28;20196;-76
2021/09/08 03:45:12;;;;;;;20.60;14.00;;;14.30;1.00;;;;;;4947224;28;20220;-76
2021/09/08 03:47:38;;;;;;;17.53;12.63;;;14.30;1.00;;;;;;4945323;28;20202;-76
2021/09/08 03:50:05;;;;;;;19.80;14.60;;;14.30;1.00;;;;;;4950137;28;20521;-76
2021/09/08 03:52:30;;;;;;;22.57;13.80;;;14.30;1.00;;;;;;4949440;28;20473;-76
2021/09/08 03:54:56;;;;;;;17.80;11.93;;;14.30;1.00;;;;;;4949886;28;20473;-76
2021/09/08 03:57:22;;;;;;;18.87;11.63;;;14.30;1.00;;;;;;4952943;28;21194;-76
2021/09/08 03:59:47;;;;;;;20.37;14.00;;;14.30;1.00;;;;;;4954041;28;20206;-76
2021/09/08 04:02:13;;;;;;;21.70;13.60;;;14.30;1.00;;;;;;4946721;28;20668;-76
2021/09/08 04:04:40;;;;;;;16.13;13.20;;;14.20;1.00;;;;;;4942470;28;20198;-76
2021/09/08 04:07:06;;;;;;;18.47;12.83;;;14.20;1.00;;;;;;4948887;28;20437;-77
2021/09/08 04:09:32;;;;;;;20.90;13.00;;;14.20;1.00;;;;;;4940297;28;20479;-76
2021/09/08 04:11:57;;;;;;;19.73;13.90;;;14.20;1.00;;;;;;4952091;28;20689;-76
2021/09/08 04:14:23;;;;;;;18.37;13.20;;;14.20;1.00;;;;;;4947773;28;20560;-76
2021/09/08 04:16:49;;;;;;;22.43;14.30;;;14.20;1.00;;;;;;4956840;28;20248;-76
2021/09/08 04:19:15;;;;;;;22.30;14.07;;;14.20;1.00;;;;;;4959830;28;20189;-76
2021/09/08 04:21:40;;;;;;;17.63;12.90;;;14.20;1.00;;;;;;4958139;28;20281;-76
2021/09/08 04:24:06;;;;;;;21.33;14.37;;;14.10;1.00;;;;;;4957640;28;20451;-76
2021/09/08 04:26:31;;;;;;;18.50;13.50;;;14.10;1.00;;;;;;4954622;28;20202;-76
2021/09/08 04:28:57;;;;;;;21.13;13.50;;;14.00;1.00;;;;;;4966675;28;20205;-76
2021/09/08 04:31:23;;;;;;;18.07;13.57;;;14.00;1.40;;;;;;4952532;28;20192;-76
2021/09/08 04:33:48;;;;;;;19.07;13.60;;;14.00;11.50;;;;;;4952705;28;20569;-76
2021/09/08 04:36:14;;;;;;;19.60;13.90;;;14.00;5.30;;;;;;4935347;28;20186;-76
2021/09/08 04:38:45;;;;;;;16.93;12.73;;;14.00;4.90;;;;;;4956813;28;20190;-76
2021/09/08 04:41:11;;;;;;;18.30;13.33;;;14.00;7.20;;;;;;4956818;28;20178;-76
2021/09/08 04:43:36;;;;;;;20.23;13.43;;;14.00;1.00;;;;;;4949583;28;21148;-76
2021/09/08 04:46:02;;;;;;;18.03;12.73;;;13.90;1.00;;;;;;4956760;28;20441;-76
2021/09/08 04:48:28;;;;;;;18.70;13.30;;;13.90;1.00;;;;;;4954130;28;20191;-76
2021/09/08 04:50:53;;;;;;;15.67;12.53;;;14.00;1.00;;;;;;4944651;28;20214;-76
2021/09/08 04:53:19;;;;;;;18.83;13.03;;;14.00;1.00;;;;;;4959025;28;20881;-76
2021/09/08 04:55:44;;;;;;;16.57;12.33;;;13.90;1.00;;;;;;4960482;28;20668;-76
2021/09/08 04:58:10;;;;;;;19.73;12.77;;;13.90;1.00;;;;;;4964997;28;20189;-77
2021/09/08 05:00:36;;;;;;;17.53;12.30;;;13.90;1.00;;;;;;4960253;28;20224;-76
2021/09/08 05:03:01;;;;;;;18.43;13.37;;;13.90;1.00;;;;;;4958648;28;20194;-76
2021/09/08 05:05:27;;;;;;;18.47;13.10;;;13.80;1.00;;;;;;4962239;28;20309;-76
2021/09/08 05:07:53;;;;;;;19.07;13.00;;;13.80;1.00;;;;;;4960736;28;20865;-76
2021/09/08 05:10:18;;;;;;;20.30;13.50;;;13.80;1.00;;;;;;4956062;28;20900;-76
2021/09/08 05:12:44;;;;;;;20.63;14.43;;;13.80;1.00;;;;;;4956171;28;20265;-77
2021/09/08 05:15:10;;;;;;;17.43;12.47;;;13.80;1.00;;;;;;4959120;28;20714;-76
2021/09/08 05:17:35;;;;;;;24.40;17.23;;;13.80;1.00;;;;;;4961996;28;20329;-76
2021/09/08 05:20:03;;;;;;;18.93;13.77;;;13.80;1.00;;;;;;4961334;28;20189;-76
2021/09/08 05:22:28;;;;;;;16.77;13.40;;;13.80;33.60;;;;;;4955722;28;20209;-76
2021/09/08 05:24:54;;;;;;;21.03;14.30;;;13.80;91.40;;;;;;4958268;28;22025;-76
2021/09/08 05:27:20;;;;;;;22.43;14.97;;;13.80;98.60;;;;;;4960325;28;20194;-76
2021/09/08 05:29:46;;;;;;;20.40;14.73;;;13.90;99.90;;;;;;4957954;28;20225;-76
2021/09/08 05:32:12;;;;;;;21.10;13.80;;;13.80;99.90;;;;;;4961936;28;20495;-76
2021/09/08 05:34:37;;;;;;;18.13;13.33;;;13.80;99.90;;;;;;4961283;28;20273;-76
2021/09/08 05:37:03;;;;;;;19.23;13.47;;;13.80;99.90;;;;;;4963022;28;21026;-76
2021/09/08 05:39:29;;;;;;;21.60;13.37;;;13.90;99.90;;;;;;4961788;28;20236;-76
2021/09/08 05:41:55;;;;;;;26.23;14.13;;;13.90;99.90;;;;;;4961359;28;20200;-76
2021/09/08 05:44:20;;;;;;;16.93;12.73;;;13.90;68.30;;;;;;4960646;28;21131;-76
2021/09/08 05:46:46;;;;;;;18.63;14.67;;;13.90;41.50;;;;;;4961734;28;20715;-76
2021/09/08 05:49:14;;;;;;;19.20;13.43;;;13.90;43.30;;;;;;4952675;28;20225;-76
2021/09/08 05:51:40;;;;;;;19.07;13.63;;;13.80;42.80;;;;;;4957854;28;20198;-76
2021/09/08 05:54:06;;;;;;;20.00;14.93;;;13.80;47.10;;;;;;4962920;28;21004;-76
2021/09/08 05:56:33;;;;;;;23.57;14.63;;;13.80;92.70;;;;;;4958834;28;20232;-76
2021/09/08 05:58:59;;;;;;;21.03;14.47;;;13.80;99.90;;;;;;4957051;28;20552;-75
2021/09/08 06:01:25;;;;;;;20.10;13.80;;;13.80;91.20;;;;;;4954942;28;20456;-76
2021/09/08 06:03:50;;;;;;;22.00;15.57;;;13.80;66.20;;;;;;4957718;28;20449;-76
2021/09/08 06:06:16;;;;;;;22.63;15.73;;;13.80;39.00;;;;;;4959919;28;20742;-76
2021/09/08 06:08:42;;;;;;;24.07;15.70;;;13.80;72.70;;;;;;4949971;28;20190;-76
2021/09/08 06:11:08;;;;;;;25.37;15.73;;;13.80;59.90;;;;;;4951638;28;20276;-77
2021/09/08 06:13:34;;;;;;;35.83;16.00;;;13.90;33.20;;;;;;4954948;28;20209;-76
2021/09/08 06:16:00;;;;;;;26.43;16.53;;;13.90;20.10;;;;;;4958400;28;20441;-76
2021/09/08 06:18:26;;;;;;;26.10;16.20;;;14.00;12.60;;;;;;4952506;28;20202;-76
2021/09/08 06:20:51;;;;;;;23.53;15.40;;;14.00;9.80;;;;;;4953585;28;20496;-76
2021/09/08 06:23:17;;;;;;;21.27;16.87;;;14.00;1.00;;;;;;4956200;28;20186;-76
2021/09/08 06:25:43;;;;;;;23.07;15.83;;;14.10;1.00;;;;;;4959527;28;20225;-76
2021/09/08 06:28:09;;;;;;;21.60;15.07;;;14.10;1.00;;;;;;4954971;28;20242;-76
2021/09/08 06:30:34;;;;;;;21.43;14.40;;;14.20;1.00;;;;;;4958158;28;20264;-75
2021/09/08 06:33:00;;;;;;;23.63;14.57;;;14.30;1.00;;;;;;4956880;28;20201;-76
2021/09/08 06:35:26;;;;;;;20.57;15.13;;;14.40;1.00;;;;;;4955937;28;20201;-76
2021/09/08 06:37:52;;;;;;;18.33;14.50;;;14.50;1.00;;;;;;4947784;28;20208;-76
2021/09/08 06:40:17;;;;;;;22.20;14.33;;;14.60;1.00;;;;;;4953263;28;20205;-76
2021/09/08 06:42:43;;;;;;;20.03;13.20;;;14.70;1.00;;;;;;4950076;28;20563;-76
2021/09/08 06:45:10;;;;;;;19.13;14.37;;;14.80;1.00;;;;;;4954957;28;20209;-75
2021/09/08 06:47:36;;;;;;;18.43;13.77;;;14.90;1.00;;;;;;4952934;28;20496;-76
2021/09/08 06:50:03;;;;;;;20.43;13.53;;;15.00;1.00;;;;;;4949227;28;20596;-77
2021/09/08 06:52:29;;;;;;;21.33;13.60;;;15.00;1.00;;;;;;4952791;28;20210;-76
2021/09/08 06:54:55;;;;;;;26.10;13.60;;;15.10;1.00;;;;;;4945172;28;20450;-76
2021/09/08 06:57:21;;;;;;;26.30;14.23;;;15.20;1.00;;;;;;4945453;28;20839;-77
2021/09/08 06:59:46;;;;;;;27.17;15.30;;;15.20;1.00;;;;;;4947648;28;20457;-77
2021/09/08 07:02:12;;;;;;;27.30;15.50;;;15.30;1.00;;;;;;4930416;28;20193;-77
2021/09/08 07:04:38;;;;;;;22.90;13.50;;;15.30;1.00;;;;;;4947760;28;20240;-77
2021/09/08 07:07:04;;;;;;;23.67;15.37;;;15.40;1.00;;;;;;4950367;28;20463;-77
2021/09/08 07:09:31;;;;;;;20.60;14.50;;;15.50;1.00;;;;;;4944595;28;20982;-76
2021/09/08 07:11:56;;;;;;;19.93;13.63;;;15.60;1.00;;;;;;4950364;28;21429;-76
2021/09/08 07:14:22;;;;;;;18.23;14.10;;;15.70;1.00;;;;;;4943599;28;20484;-77
2021/09/08 07:16:47;;;;;;;21.13;13.50;;;15.80;1.00;;;;;;4949276;28;20205;-77
2021/09/08 07:19:13;;;;;;;23.47;14.27;;;16.00;1.00;;;;;;4942746;28;20182;-77
2021/09/08 07:21:39;;;;;;;22.00;15.47;;;16.20;1.00;;;;;;4945790;28;20689;-77
2021/09/08 07:24:05;;;;;;;21.17;15.17;;;16.30;1.00;;;;;;4948823;28;20240;-77
2021/09/08 07:26:33;;;;;;;20.57;14.00;;;16.40;1.00;;;;;;4950332;28;20889;-76
2021/09/08 07:29:04;;;;;;;21.17;15.63;;;16.50;1.00;;;;;;4946240;28;20469;-76
2021/09/08 07:31:30;;;;;;;23.80;14.63;;;16.70;1.00;;;;;;4948472;28;20445;-76
2021/09/08 07:33:57;;;;;;;25.53;15.67;;;16.80;1.00;;;;;;4947036;28;20484;-76
2021/09/08 07:36:23;;;;;;;24.50;15.80;;;17.00;1.00;;;;;;4952635;28;20449;-76
2021/09/08 07:38:50;;;;;;;22.20;15.67;;;17.10;1.00;;;;;;4949020;28;20868;-77
2021/09/08 07:41:17;;;;;;;22.73;14.63;;;17.20;1.00;;;;;;4948075;28;20453;-77
2021/09/08 07:43:42;;;;;;;24.77;15.73;;;17.30;1.00;;;;;;4944548;28;20458;-76
2021/09/08 07:46:08;;;;;;;24.53;16.03;;;17.40;1.00;;;;;;4946562;28;20513;-77
2021/09/08 07:48:34;;;;;;;23.83;15.20;;;17.50;1.00;;;;;;4946530;28;20202;-77
2021/09/08 07:50:59;;;;;;;26.43;17.60;;;17.60;1.00;;;;;;4947462;28;20617;-76
2021/09/08 07:53:25;;;;;;;23.33;17.20;;;17.70;1.00;;;;;;4944508;28;20324;-76
2021/09/08 07:55:50;;;;;;;27.53;15.50;;;17.80;1.00;;;;;;4951540;28;20194;-77
2021/09/08 07:58:16;;;;;;;22.00;15.57;;;17.90;1.00;;;;;;4947173;28;20198;-76
2021/09/08 08:00:42;;;;;;;21.50;15.90;;;18.00;1.00;;;;;;4945619;28;20261;-76
2021/09/08 08:03:07;;;;;;;23.90;15.73;;;18.10;1.00;;;;;;4948327;28;22582;-75
2021/09/08 08:05:33;;;;;;;19.60;15.97;;;18.30;1.00;;;;;;4952943;28;20233;-75
2021/09/08 08:08:00;;;;;;;18.10;13.30;;;18.40;1.00;;;;;;4947091;28;20194;-76
2021/09/08 08:10:26;;;;;;;24.83;14.50;;;18.50;1.00;;;;;;4945811;28;20507;-76
2021/09/08 08:12:53;;;;;;;18.57;14.77;;;18.60;1.00;;;;;;4947455;28;20457;-76
2021/09/08 08:15:19;;;;;;;25.03;14.60;;;18.70;1.00;;;;;;4950868;28;20531;-77
2021/09/08 08:17:47;;;;;;;21.13;14.40;;;18.90;1.00;;;;;;4951252;28;20492;-75
2021/09/08 08:20:14;;;;;;;19.07;13.83;;;19.10;1.00;;;;;;4951418;28;20544;-75
2021/09/08 08:22:40;;;;;;;23.20;14.33;;;19.40;1.00;;;;;;4954858;28;20437;-75
2021/09/08 08:25:09;;;;;;;15.83;12.03;;;19.50;1.00;;;;;;4953434;28;20540;-75
2021/09/08 08:27:35;;;;;;;18.03;13.63;;;19.80;1.00;;;;;;4950028;28;20450;-75
2021/09/08 08:30:02;;;;;;;15.87;13.20;;;20.00;1.00;;;;;;4951726;28;20527;-78
2021/09/08 08:32:27;;;;;;;24.83;14.03;;;20.00;1.00;;;;;;4954272;28;20577;-76
2021/09/08 08:34:54;;;;;;;16.07;12.43;;;20.10;1.00;;;;;;4956151;28;20468;-75
2021/09/08 08:37:19;;;;;;;17.30;12.67;;;20.20;1.00;;;;;;4951542;28;20186;-77
2021/09/08 08:39:46;;;;;;;16.90;12.10;;;20.30;1.00;;;;;;4950871;28;20501;-75
2021/09/08 08:42:21;;;;;;;21.00;13.10;;;20.40;1.00;;;;;;4952049;28;20225;-77
2021/09/08 08:44:48;;;;;;;15.37;12.47;;;20.50;1.00;;;;;;4948744;28;20501;-77
2021/09/08 08:47:14;;;;;;;18.70;13.20;;;20.60;1.00;;;;;;4951491;28;20487;-77
2021/09/08 08:49:41;;;;;;;18.20;11.70;;;20.70;1.00;;;;;;4949982;28;20481;-77
2021/09/08 08:52:07;;;;;;;15.47;12.00;;;20.90;1.00;;;;;;4951678;28;20464;-76
2021/09/08 08:54:33;;;;;;;14.93;10.60;;;21.00;1.00;;;;;;4948112;28;20978;-75
2021/09/08 08:56:58;;;;;;;13.63;10.83;;;21.30;1.00;;;;;;4948298;28;20190;-75
2021/09/08 08:59:24;;;;;;;13.43;11.40;;;21.60;1.00;;;;;;4950163;28;20213;-75
2021/09/08 09:01:49;;;;;;;14.23;9.90;;;21.80;1.00;;;;;;4952053;28;20536;-75
2021/09/08 09:04:16;;;;;;;13.77;10.80;;;21.90;1.00;;;;;;4952524;28;20201;-75
2021/09/08 09:06:46;;;;;;;17.73;10.73;;;22.10;1.00;;;;;;4939133;28;20277;-75
2021/09/08 09:09:13;;;;;;;11.20;10.00;;;22.10;1.00;;;;;;4951744;28;20484;-76
2021/09/08 09:11:41;;;;;;;13.73;11.00;;;22.20;1.00;;;;;;4952409;28;20824;-76
2021/09/08 09:14:09;;;;;;;14.80;10.50;;;22.30;1.00;;;;;;4950769;28;20456;-75
2021/09/08 09:16:37;;;;;;;11.10;9.80;;;22.40;1.00;;;;;;4948710;28;20554;-78
2021/09/08 09:19:03;;;;;;;15.00;9.67;;;22.50;1.00;;;;;;4951935;28;20449;-75
2021/09/08 09:21:29;;;;;;;12.77;9.20;;;22.60;1.00;;;;;;4951795;28;20448;-77
2021/09/08 09:23:57;;;;;;;11.70;10.37;;;22.80;1.00;;;;;;4950259;28;20453;-77
2021/09/08 09:26:28;;;;;;;11.30;9.00;;;22.80;1.00;;;;;;4949716;28;20545;-77
2021/09/08 09:29:03;;;;;;;15.40;8.90;;;22.90;1.00;;;;;;4950743;28;20468;-78
2021/09/08 09:31:29;;;;;;;12.70;9.27;;;23.00;1.00;;;;;;4941647;28;20872;-77
2021/09/08 09:33:57;;;;;;;13.13;9.23;;;23.00;1.00;;;;;;4947896;28;20540;-77
2021/09/08 09:36:30;;;;;;;12.20;9.60;;;23.20;1.00;;;;;;4938772;28;20447;-77
2021/09/08 09:38:56;;;;;;;11.30;9.50;;;23.20;1.00;;;;;;4951559;28;20445;-77
2021/09/08 09:41:25;;;;;;;11.03;9.27;;;23.30;1.00;;;;;;4947018;28;20752;-77
2021/09/08 09:43:51;;;;;;;12.73;10.70;;;23.40;1.00;;;;;;4948983;28;20465;-77
2021/09/08 09:46:17;;;;;;;14.40;9.80;;;23.50;1.00;;;;;;4943734;28;20477;-78
2021/09/08 09:48:43;;;;;;;13.40;10.43;;;23.60;1.00;;;;;;4927600;28;20449;-77
2021/09/08 09:51:11;;;;;;;13.90;9.87;;;23.60;1.00;;;;;;4949177;28;20976;-77
2021/09/08 09:53:36;;;;;;;13.03;9.43;;;23.60;1.00;;;;;;4944959;28;20186;-77
2021/09/08 09:56:02;;;;;;;13.20;8.20;;;23.70;1.00;;;;;;4946983;28;20444;-77
2021/09/08 09:58:28;;;;;;;9.83;8.83;;;23.80;1.00;;;;;;4948896;28;20194;-77
2021/09/08 10:00:54;;;;;;;13.17;9.87;;;23.90;1.00;;;;;;4948634;28;20808;-77
2021/09/08 10:03:21;;;;;;;11.07;9.60;;;24.00;1.00;;;;;;4949273;28;20189;-77
2021/09/08 10:05:47;;;;;;;15.67;9.13;;;24.20;1.00;;;;;;4932397;28;20862;-77
2021/09/08 10:08:18;;;;;;;12.13;9.50;;;24.20;1.00;;;;;;4948315;28;20900;-77
2021/09/08 10:10:46;;;;;;;13.80;8.33;;;24.30;1.00;;;;;;4949077;28;20503;-77
2021/09/08 10:13:28;;;;;;;11.20;9.57;;;24.30;1.00;;;;;;4949516;28;20477;-77
2021/09/08 10:15:54;;;;;;;9.83;8.83;;;24.40;1.00;;;;;;4947393;28;20449;-77
2021/09/08 10:18:25;;;;;;;10.47;8.40;;;24.40;1.00;;;;;;4950258;28;20472;-77
2021/09/08 10:21:05;;;;;;;18.03;9.13;;;24.30;1.00;;;;;;4951084;28;20453;-78
2021/09/08 10:24:02;;;;;;;9.97;8.87;;;24.50;1.00;;;;;;4947636;28;20454;-75
2021/09/08 10:26:30;;;;;;;15.00;8.87;;;24.50;1.00;;;;;;4945378;28;20954;-78
2021/09/08 10:29:04;;;;;;;8.33;7.53;;;24.50;1.00;;;;;;4950260;28;20454;-78
2021/09/08 10:31:31;;;;;;;9.63;8.63;;;24.60;1.00;;;;;;4952110;28;20982;-78
2021/09/08 10:33:57;;;;;;;12.93;9.00;;;24.70;1.00;;;;;;4939116;28;20452;-77
2021/09/08 10:36:23;;;;;;;12.03;8.27;;;24.60;1.00;;;;;;4946624;28;20453;-77
2021/09/08 10:39:09;;;;;;;11.13;9.43;;;24.70;1.00;;;;;;4947241;28;21016;-77
2021/09/08 10:41:46;;;;;;;11.13;7.90;;;24.80;1.00;;;;;;4947210;28;20205;-78
2021/09/08 10:44:13;;;;;;;9.03;8.10;;;24.80;1.00;;;;;;4946665;28;20478;-78
2021/09/08 10:46:49;;;;;;;11.73;8.10;;;25.00;1.00;;;;;;4940837;28;20453;-77
2021/09/08 10:49:47;;;;;;;10.70;8.40;;;25.10;1.00;;;;;;4949751;28;20472;-77
2021/09/08 10:52:34;;;;;;;11.70;8.80;;;25.10;1.00;;;;;;4934282;28;24304;-77
2021/09/08 10:55:00;;;;;;;8.43;7.50;;;25.20;1.00;;;;;;4938761;28;20456;-77
2021/09/08 10:57:41;;;;;;;9.67;8.50;;;25.30;1.00;;;;;;4950792;28;20504;-77
2021/09/08 11:00:31;;;;;;;11.13;8.50;;;25.30;1.00;;;;;;4947315;28;20241;-77
2021/09/08 11:02:57;;;;;;;10.17;8.77;;;25.20;1.00;;;;;;4949236;28;20441;-77
2021/09/08 11:05:23;;;;;;;9.53;8.53;;;25.30;1.00;;;;;;4948615;28;20454;-77
2021/09/08 11:07:51;;;;;;;12.00;8.63;;;25.30;1.00;;;;;;4950282;28;20452;-77
2021/09/08 11:10:33;;;;;;;10.63;8.33;;;25.20;1.00;;;;;;4949755;28;20210;-77
2021/09/08 11:13:01;;;;;;;9.93;7.63;;;25.10;1.00;;;;;;4950445;28;20508;-77
2021/09/08 11:15:38;;;;;;;8.70;7.90;;;25.30;1.00;;;;;;4948890;28;20524;-77
2021/09/08 11:18:10;;;;;;;8.20;7.40;;;25.30;1.00;;;;;;4938142;28;20453;-76
2021/09/08 11:20:36;;;;;;;11.27;7.60;;;25.40;1.00;;;;;;4950225;28;20449;-77
2021/09/08 11:23:03;;;;;;;9.80;8.00;;;25.40;1.00;;;;;;4948940;28;20866;-77
2021/09/08 11:25:37;;;;;;;8.13;7.07;;;25.50;1.00;;;;;;4942922;28;20450;-77
2021/09/08 11:28:04;;;;;;;9.43;7.23;;;25.50;1.00;;;;;;4947978;28;20484;-77
2021/09/08 11:30:38;;;;;;;8.40;7.33;;;25.50;1.00;;;;;;4943898;28;20588;-77
2021/09/08 11:33:09;;;;;;;8.33;7.50;;;25.60;1.00;;;;;;4946305;28;20456;-77
2021/09/08 11:35:49;;;;;;;9.13;8.03;;;25.50;1.00;;;;;;4943305;28;20478;-77
2021/09/08 11:38:23;;;;;;;8.93;7.13;;;25.50;1.00;;;;;;4947445;28;20527;-77
2021/09/08 11:41:01;;;;;;;10.37;7.07;;;25.50;1.00;;;;;;4943630;28;22412;-77
2021/09/08 11:43:34;;;;;;;9.17;6.77;;;25.70;1.00;;;;;;4943750;28;20489;-77
2021/09/08 11:46:22;;;;;;;8.97;6.30;;;25.70;1.00;;;;;;4943644;28;20476;-77
2021/09/08 11:49:10;;;;;;;8.07;6.20;;;25.80;1.00;;;;;;4950676;28;20468;-76
2021/09/08 11:51:38;;;;;;;12.30;6.37;;;25.80;1.00;;;;;;4951433;28;20485;-78
2021/09/08 11:54:07;;;;;;;9.57;6.90;;;25.70;1.00;;;;;;4953031;28;20801;-77
2021/09/08 11:56:33;;;;;;;8.77;7.03;;;25.80;1.00;;;;;;4950725;28;20535;-76
2021/09/08 11:59:01;;;;;;;7.07;6.37;;;25.80;1.00;;;;;;4953555;28;20436;-76
2021/09/08 12:01:41;;;;;;;7.60;6.80;;;26.00;1.00;;;;;;4951594;28;20464;-76
2021/09/08 12:04:09;;;;;;;8.03;6.90;;;25.90;1.00;;;;;;4955263;28;20511;-76
2021/09/08 12:06:55;;;;;;;7.90;7.10;;;25.90;1.00;;;;;;4951449;28;20468;-76
2021/09/08 12:09:26;;;;;;;9.93;6.70;;;25.90;1.00;;;;;;4951936;28;20463;-76
2021/09/08 12:12:11;;;;;;;6.90;6.23;;;26.00;1.00;;;;;;4952241;28;20451;-76
2021/09/08 12:14:42;;;;;;;6.97;6.30;;;26.00;1.00;;;;;;4950390;28;20461;-76
2021/09/08 12:17:16;;;;;;;7.33;6.63;;;26.00;1.00;;;;;;4952636;28;20457;-76
2021/09/08 12:20:03;;;;;;;8.30;6.77;;;26.10;1.00;;;;;;4952554;28;20493;-76
2021/09/08 12:22:35;;;;;;;9.17;6.73;;;26.10;1.00;;;;;;4950166;28;20847;-76
2021/09/08 12:25:21;;;;;;;8.40;6.60;;;26.10;1.00;;;;;;4951861;28;20608;-77
2021/09/08 12:27:50;;;;;;;8.93;6.90;;;25.90;1.00;;;;;;4953128;28;20452;-76
2021/09/08 12:30:19;;;;;;;9.60;7.47;;;26.00;1.00;;;;;;4954938;28;20485;-76
2021/09/08 12:32:49;;;;;;;8.70;6.87;;;25.90;1.00;;;;;;4951015;28;20456;-77
2021/09/08 12:35:37;;;;;;;8.23;6.90;;;26.00;1.00;;;;;;4954682;28;20481;-76
2021/09/08 12:38:23;;;;;;;8.57;7.70;;;26.10;1.00;;;;;;4955512;28;20442;-76
2021/09/08 12:41:27;;;;;;;9.23;6.60;;;26.10;1.00;;;;;;4948821;28;20970;-76
2021/09/08 12:43:53;;;;;;;9.70;7.60;;;26.10;1.00;;;;;;4946719;28;20452;-76